Time;durP1;ratioP1;P1;durP2;ratioP2;P2;SDS_P1;SDS_P2;PMS_P1;PMS_P2;Temp;Humidity;BMP_temperature;BMP_pressure;BME280_temperature;BME280_humidity;BME280_pressure;Samples;Min_cycle;Max_cycle;Signal;HPM_P1;HPM_P2
2021/01/23 00:00:14;;;;;;;;;;;7.70;84.80;;;;;;5106729;28;20051;-67
2021/01/23 00:02:40;;;;;;;20.48;10.25;;;7.90;83.30;;;;;;5106209;28;19947;-66
2021/01/23 00:05:06;;;;;;;;;;;7.90;83.30;;;;;;5105940;28;20046;-67
2021/01/23 00:07:31;;;;;;;19.33;10.05;;;7.90;82.90;;;;;;5106312;28;19907;-67
2021/01/23 00:09:57;;;;;;;;;;;8.00;82.70;;;;;;5106510;28;20446;-68
2021/01/23 00:12:22;;;;;;;23.65;9.88;;;8.00;82.30;;;;;;5106083;28;19908;-67
2021/01/23 00:14:48;;;;;;;19.90;11.30;;;7.90;82.60;;;;;;5106525;28;20028;-67
2021/01/23 00:17:14;;;;;;;18.30;9.50;;;8.00;82.10;;;;;;5106331;28;20148;-68
2021/01/23 00:19:39;;;;;;;;;;;8.00;82.20;;;;;;5106097;28;20024;-68
2021/01/23 00:22:05;;;;;;;23.25;11.13;;;7.90;82.80;;;;;;5106096;28;20021;-67
2021/01/23 00:24:30;;;;;;;15.73;9.25;;;7.90;83.10;;;;;;5105658;28;20031;-67
2021/01/23 00:26:56;;;;;;;;;;;7.80;82.90;;;;;;5087843;28;20106;-68
2021/01/23 00:29:21;;;;;;;15.68;9.23;;;7.90;82.90;;;;;;5105917;28;19923;-68
2021/01/23 00:31:47;;;;;;;19.90;9.10;;;7.90;82.60;;;;;;5105937;28;20700;-67
2021/01/23 00:34:13;;;;;;;;;;;8.10;81.80;;;;;;5105983;28;20438;-66
2021/01/23 00:36:39;;;;;;;13.68;8.98;;;8.00;82.40;;;;;;5091278;28;19907;-66
2021/01/23 00:39:05;;;;;;;;;;;8.00;82.80;;;;;;5109939;28;20027;-65
2021/01/23 00:41:30;;;;;;;20.95;8.88;;;8.10;81.90;;;;;;5109730;28;20376;-66
2021/01/23 00:43:56;;;;;;;;;;;8.20;81.00;;;;;;5109578;28;20039;-66
2021/01/23 00:46:22;;;;;;;17.08;8.38;;;8.10;81.30;;;;;;5109585;28;20443;-66
2021/01/23 00:48:51;;;;;;;;;;;8.20;81.50;;;;;;5109212;28;20504;-66
2021/01/23 00:51:16;;;;;;;14.80;8.73;;;8.20;81.60;;;;;;5107866;28;19907;-67
2021/01/23 00:53:44;;;;;;;;;;;8.20;81.60;;;;;;5109724;28;20028;-67
2021/01/23 00:56:10;;;;;;;12.80;6.78;;;8.20;81.00;;;;;;5109401;28;19908;-67
2021/01/23 00:58:35;;;;;;;16.05;7.88;;;8.10;81.30;;;;;;5108914;28;20023;-67
2021/01/23 01:01:02;;;;;;;;;;;8.10;81.60;;;;;;5109615;28;20084;-67
2021/01/23 01:03:28;;;;;;;17.02;8.10;;;8.00;81.60;;;;;;5090667;28;19929;-67
2021/01/23 01:05:53;;;;;;;;;;;8.00;81.70;;;;;;5109447;28;20594;-67
2021/01/23 01:08:19;;;;;;;12.77;7.88;;;8.00;81.30;;;;;;5108960;28;19908;-67
2021/01/23 01:10:47;;;;;;;15.50;7.63;;;8.00;81.40;;;;;;5108704;28;20035;-66
2021/01/23 01:13:13;;;;;;;14.88;7.15;;;8.10;80.90;;;;;;5108639;28;20412;-67
2021/01/23 01:15:39;;;;;;;;;;;8.10;80.60;;;;;;5108838;28;20471;-67
2021/01/23 01:18:05;;;;;;;18.73;8.20;;;8.20;80.70;;;;;;5108451;28;20057;-67
2021/01/23 01:20:31;;;;;;;;;;;8.10;81.10;;;;;;5109514;28;20106;-67
2021/01/23 01:22:57;;;;;;;18.10;8.07;;;8.60;79.00;;;;;;5108646;28;20025;-67
2021/01/23 01:25:22;;;;;;;;;;;8.50;78.90;;;;;;5109067;28;20032;-67
2021/01/23 01:27:48;;;;;;;11.55;7.43;;;8.40;79.50;;;;;;5108315;28;20003;-68
2021/01/23 01:30:15;;;;;;;15.35;7.65;;;8.50;79.40;;;;;;5108733;28;20105;-66
2021/01/23 01:32:41;;;;;;;15.15;8.30;;;8.40;79.40;;;;;;5108188;28;20097;-67
2021/01/23 01:35:07;;;;;;;;;;;8.40;79.40;;;;;;5108742;28;20644;-67
2021/01/23 01:37:33;;;;;;;14.73;6.35;;;8.30;80.10;;;;;;5108696;28;19998;-67
2021/01/23 01:39:58;;;;;;;;;;;8.40;79.80;;;;;;5108902;28;20063;-67
2021/01/23 01:42:24;;;;;;;10.40;6.45;;;8.50;78.60;;;;;;5108513;28;19908;-67
2021/01/23 01:44:50;;;;;;;;;;;8.40;79.00;;;;;;5108521;28;20039;-66
2021/01/23 01:47:17;;;;;;;14.13;7.53;;;8.40;79.20;;;;;;5108000;28;19966;-67
2021/01/23 01:49:42;;;;;;;18.38;7.32;;;8.30;79.40;;;;;;5107321;28;20206;-67
2021/01/23 01:52:08;;;;;;;;;;;8.30;79.40;;;;;;5108641;28;20039;-67
2021/01/23 01:54:33;;;;;;;12.55;6.68;;;8.30;79.50;;;;;;5108398;28;19908;-66
2021/01/23 01:56:59;;;;;;;14.05;6.07;;;8.20;79.70;;;;;;5089516;28;20047;-66
2021/01/23 01:59:25;;;;;;;10.48;6.05;;;8.30;79.30;;;;;;5108265;28;20093;-66
2021/01/23 02:01:57;;;;;;;;;;;8.30;79.30;;;;;;5107923;28;20051;-67
2021/01/23 02:04:44;;;;;;;16.20;5.70;;;8.40;78.50;;;;;;5107565;28;19908;-68
2021/01/23 02:07:30;;;;;;;13.30;5.93;;;8.40;79.00;;;;;;5107496;28;20492;-68
2021/01/23 02:10:15;;;;;;;11.38;6.10;;;8.40;79.00;;;;;;5108200;28;20385;-67
2021/01/23 02:13:05;;;;;;;11.95;6.45;;;8.60;78.20;;;;;;5108151;28;20026;-67
2021/01/23 02:15:39;;;;;;;12.10;6.78;;;8.60;78.20;;;;;;5108003;28;20046;-67
2021/01/23 02:18:08;;;;;;;12.82;7.25;;;8.60;79.00;;;;;;5107855;28;20028;-67
2021/01/23 02:21:11;;;;;;;15.07;6.93;;;8.60;78.90;;;;;;5108275;28;20050;-67
2021/01/23 02:23:38;;;;;;;15.48;7.20;;;8.80;78.00;;;;;;5089311;28;20108;-67
2021/01/23 02:26:16;;;;;;;15.90;7.55;;;8.70;78.60;;;;;;5107451;28;20122;-67
2021/01/23 02:28:59;;;;;;;27.95;14.13;;;8.60;79.20;;;;;;5088765;28;20596;-66
2021/01/23 02:31:28;;;;;;;17.48;7.25;;;8.70;79.20;;;;;;5107042;28;20031;-66
2021/01/23 02:33:58;;;;;;;10.50;5.97;;;8.60;78.90;;;;;;5107045;28;20034;-67
2021/01/23 02:36:24;;;;;;;10.63;5.80;;;8.50;79.30;;;;;;5107170;28;20042;-67
2021/01/23 02:38:51;;;;;;;12.35;6.55;;;8.50;79.10;;;;;;5107336;28;20108;-67
2021/01/23 02:41:17;;;;;;;10.90;5.65;;;8.40;79.80;;;;;;5107137;28;20028;-67
2021/01/23 02:43:44;;;;;;;;;;;8.50;79.30;;;;;;5107613;28;20023;-66
2021/01/23 02:46:10;;;;;;;14.60;6.20;;;8.60;79.00;;;;;;5106621;28;19915;-66
2021/01/23 02:48:37;;;;;;;14.60;5.70;;;8.40;79.40;;;;;;5106921;28;20046;-66
2021/01/23 02:51:11;;;;;;;10.57;5.72;;;8.50;79.40;;;;;;5107214;28;20027;-67
2021/01/23 02:53:38;;;;;;;16.02;6.65;;;8.50;79.40;;;;;;5088843;28;20614;-67
2021/01/23 02:56:14;;;;;;;14.88;7.25;;;8.40;79.80;;;;;;5088205;28;20020;-67
2021/01/23 02:58:42;;;;;;;10.33;4.73;;;8.50;79.30;;;;;;5106689;28;20057;-66
2021/01/23 03:01:08;;;;;;;12.57;6.30;;;8.50;79.60;;;;;;5106946;28;20032;-66
2021/01/23 03:03:35;;;;;;;11.93;5.35;;;8.50;79.70;;;;;;5106262;28;20019;-67
2021/01/23 03:06:04;;;;;;;9.40;5.93;;;8.40;80.30;;;;;;5106839;28;20074;-66
2021/01/23 03:08:30;;;;;;;13.98;6.75;;;8.30;80.90;;;;;;5106573;28;20133;-67
2021/01/23 03:10:56;;;;;;;14.70;5.38;;;8.40;80.20;;;;;;5088388;28;20038;-66
2021/01/23 03:13:21;;;;;;;;;;;8.60;79.30;;;;;;5107381;28;20019;-67
2021/01/23 03:15:47;;;;;;;10.57;4.78;;;8.60;79.50;;;;;;5106718;28;20723;-67
2021/01/23 03:18:13;;;;;;;12.73;5.07;;;8.50;79.90;;;;;;5106196;28;20028;-67
2021/01/23 03:20:38;;;;;;;;;;;8.40;80.50;;;;;;5107131;28;20400;-66
2021/01/23 03:23:04;;;;;;;14.27;5.63;;;8.50;80.60;;;;;;5106411;28;20329;-67
2021/01/23 03:25:30;;;;;;;;;;;8.50;80.40;;;;;;5107211;28;20031;-66
2021/01/23 03:27:57;;;;;;;15.90;4.95;;;8.60;79.90;;;;;;5106689;28;19982;-66
2021/01/23 03:30:27;;;;;;;13.85;5.32;;;8.70;79.90;;;;;;5106950;28;20116;-66
2021/01/23 03:32:53;;;;;;;9.57;4.60;;;8.60;80.00;;;;;;5106035;28;20051;-66
2021/01/23 03:35:18;;;;;;;;;;;8.40;80.50;;;;;;5107038;28;20081;-65
2021/01/23 03:37:45;;;;;;;9.35;4.43;;;8.40;80.70;;;;;;5106790;28;19929;-67
2021/01/23 03:40:11;;;;;;;13.52;4.47;;;8.50;80.30;;;;;;5106584;28;20012;-67
2021/01/23 03:42:37;;;;;;;14.10;5.40;;;8.40;80.20;;;;;;5105945;28;20032;-67
2021/01/23 03:45:07;;;;;;;18.10;6.55;;;8.40;79.90;;;;;;5106697;28;20495;-68
2021/01/23 03:47:34;;;;;;;8.98;4.55;;;8.40;80.20;;;;;;5087772;28;20028;-67
2021/01/23 03:49:59;;;;;;;14.95;6.55;;;8.60;79.40;;;;;;5106088;28;20399;-68
2021/01/23 03:52:25;;;;;;;;;;;8.60;79.00;;;;;;5088594;28;20028;-68
2021/01/23 03:54:51;;;;;;;10.43;5.43;;;8.60;79.10;;;;;;5106165;28;19904;-68
2021/01/23 03:57:17;;;;;;;;;;;8.60;78.80;;;;;;5106734;28;20020;-67
2021/01/23 03:59:42;;;;;;;10.75;5.13;;;8.60;79.20;;;;;;5106042;28;19911;-68
2021/01/23 04:02:08;;;;;;;;;;;8.50;79.70;;;;;;5106389;28;20412;-67
2021/01/23 04:04:34;;;;;;;16.10;6.40;;;8.50;79.70;;;;;;5106023;28;19911;-68
2021/01/23 04:06:59;;;;;;;12.25;4.90;;;8.50;79.60;;;;;;5106568;28;20036;-68
2021/01/23 04:09:25;;;;;;;;;;;8.60;79.40;;;;;;5107786;28;20115;-68
2021/01/23 04:11:51;;;;;;;10.43;5.60;;;8.50;79.70;;;;;;5110368;28;20153;-68
2021/01/23 04:14:17;;;;;;;;;;;8.40;80.30;;;;;;5110814;28;20031;-68
2021/01/23 04:16:47;;;;;;;9.55;5.13;;;8.30;80.40;;;;;;5109934;28;19907;-68
2021/01/23 04:19:13;;;;;;;9.73;5.15;;;8.30;80.80;;;;;;5110118;28;20065;-67
2021/01/23 04:21:39;;;;;;;9.25;5.82;;;8.30;81.00;;;;;;5091459;28;20020;-68
2021/01/23 04:24:04;;;;;;;;;;;8.40;80.70;;;;;;5110073;28;20081;-68
2021/01/23 04:26:30;;;;;;;13.52;5.38;;;8.40;80.20;;;;;;5110141;28;19912;-68
2021/01/23 04:28:56;;;;;;;;;;;8.50;80.40;;;;;;5109939;28;20044;-66
2021/01/23 04:31:22;;;;;;;7.70;4.90;;;8.60;79.40;;;;;;5109449;28;19904;-68
2021/01/23 04:33:47;;;;;;;9.07;5.22;;;8.40;80.40;;;;;;5109652;28;20152;-67
2021/01/23 04:36:13;;;;;;;;;;;8.50;80.20;;;;;;5110056;28;20851;-67
2021/01/23 04:38:39;;;;;;;8.82;5.07;;;8.30;80.70;;;;;;5109693;28;19907;-68
2021/01/23 04:41:04;;;;;;;;;;;8.20;81.10;;;;;;5110112;28;20428;-69
2021/01/23 04:43:30;;;;;;;10.60;6.00;;;8.30;81.20;;;;;;5109343;28;19913;-68
2021/01/23 04:45:55;;;;;;;;;;;8.10;81.60;;;;;;5109471;28;20135;-68
2021/01/23 04:48:21;;;;;;;9.98;5.95;;;8.00;82.20;;;;;;5109297;28;19914;-68
2021/01/23 04:50:47;;;;;;;11.15;6.03;;;7.90;82.80;;;;;;5108980;28;20027;-68
2021/01/23 04:53:13;;;;;;;;;;;7.90;83.20;;;;;;5109786;28;20039;-67
2021/01/23 04:55:38;;;;;;;11.85;5.25;;;7.80;83.60;;;;;;5109386;28;19908;-67
2021/01/23 04:58:04;;;;;;;9.02;5.20;;;7.90;82.60;;;;;;5109372;28;20111;-67
2021/01/23 05:00:29;;;;;;;;;;;8.20;82.10;;;;;;5109933;28;20463;-67
2021/01/23 05:03:01;;;;;;;11.52;5.03;;;8.30;81.00;;;;;;5108229;28;20303;-68
2021/01/23 05:05:27;;;;;;;7.18;4.63;;;8.20;81.30;;;;;;5109272;28;20081;-67
2021/01/23 05:07:53;;;;;;;8.82;4.28;;;8.20;80.80;;;;;;5108474;28;20038;-68
2021/01/23 05:10:20;;;;;;;;;;;8.20;80.90;;;;;;5109338;28;20031;-67
2021/01/23 05:12:48;;;;;;;9.85;4.43;;;8.30;80.60;;;;;;5108873;28;20002;-67
2021/01/23 05:15:28;;;;;;;8.88;5.25;;;8.50;80.30;;;;;;5108576;28;20084;-68
2021/01/23 05:18:04;;;;;;;14.75;5.25;;;8.50;80.30;;;;;;5089736;28;20028;-67
2021/01/23 05:20:50;;;;;;;14.82;6.22;;;8.40;80.50;;;;;;5108606;28;20038;-67
2021/01/23 05:23:18;;;;;;;14.52;5.15;;;8.30;81.10;;;;;;5108818;28;20059;-68
2021/01/23 05:25:47;;;;;;;10.63;6.03;;;8.20;81.80;;;;;;5090359;28;20054;-67
2021/01/23 05:28:13;;;;;;;16.20;5.70;;;8.20;82.20;;;;;;5108689;28;20539;-68
2021/01/23 05:30:41;;;;;;;;;;;8.10;82.80;;;;;;5108229;28;20090;-66
2021/01/23 05:33:10;;;;;;;11.52;5.78;;;8.10;82.90;;;;;;5090380;28;20268;-68
2021/01/23 05:35:37;;;;;;;10.73;6.28;;;7.90;83.40;;;;;;5108993;28;20059;-68
2021/01/23 05:38:18;;;;;;;9.82;5.53;;;7.70;84.50;;;;;;5108601;28;20028;-68
2021/01/23 05:40:44;;;;;;;14.85;6.32;;;7.70;84.90;;;;;;5108447;28;20065;-68
2021/01/23 05:43:09;;;;;;;;;;;7.80;84.70;;;;;;5108782;28;20035;-67
2021/01/23 05:45:35;;;;;;;14.98;7.18;;;7.70;84.80;;;;;;5108014;28;19959;-69
2021/01/23 05:48:08;;;;;;;;;;;7.70;85.10;;;;;;5108754;28;20035;-67
2021/01/23 05:50:34;;;;;;;16.88;7.10;;;7.60;85.10;;;;;;5108283;28;19951;-67
2021/01/23 05:52:59;;;;;;;;;;;7.60;85.20;;;;;;5108631;28;20023;-66
2021/01/23 05:55:26;;;;;;;13.23;6.53;;;7.70;84.90;;;;;;5108420;28;19914;-66
2021/01/23 05:57:56;;;;;;;10.73;6.10;;;7.80;83.90;;;;;;5107860;28;20028;-66
2021/01/23 06:00:23;;;;;;;14.90;6.28;;;7.70;84.20;;;;;;5107670;28;20032;-67
2021/01/23 06:02:50;;;;;;;11.00;6.05;;;7.60;85.00;;;;;;5108297;28;20460;-67
2021/01/23 06:05:16;;;;;;;11.70;5.43;;;7.80;84.60;;;;;;5089549;28;20036;-67
2021/01/23 06:07:46;;;;;;;;;;;7.80;83.80;;;;;;5108095;28;20028;-67
2021/01/23 06:10:24;;;;;;;10.35;5.10;;;7.80;84.10;;;;;;5107463;28;19908;-67
2021/01/23 06:12:54;;;;;;;10.30;5.30;;;7.60;85.20;;;;;;5107611;28;20024;-67
2021/01/23 06:15:34;;;;;;;12.10;6.22;;;7.70;84.50;;;;;;5107618;28;20028;-68
2021/01/23 06:18:02;;;;;;;9.32;4.90;;;7.60;85.30;;;;;;5107259;28;20055;-67
2021/01/23 06:20:40;;;;;;;11.57;5.68;;;7.70;85.10;;;;;;5107818;28;20430;-68
2021/01/23 06:23:13;;;;;;;12.38;5.55;;;7.90;84.60;;;;;;5107519;28;20487;-67
2021/01/23 06:25:51;;;;;;;14.32;5.53;;;7.80;85.10;;;;;;5089497;28;20039;-67
2021/01/23 06:28:26;;;;;;;17.13;5.97;;;7.80;85.00;;;;;;5107297;28;20615;-67
2021/01/23 06:30:54;;;;;;;16.50;5.57;;;7.80;84.70;;;;;;5089070;28;20023;-67
2021/01/23 06:33:23;;;;;;;9.73;5.05;;;7.70;85.40;;;;;;5106734;28;20465;-66
2021/01/23 06:36:04;;;;;;;11.35;5.30;;;7.60;85.40;;;;;;5107344;28;20070;-68
2021/01/23 06:38:30;;;;;;;13.80;6.43;;;7.60;86.10;;;;;;5107503;28;20039;-68
2021/01/23 06:40:56;;;;;;;11.48;5.32;;;7.70;85.70;;;;;;5107209;28;20061;-68
2021/01/23 06:43:21;;;;;;;;;;;7.80;83.80;;;;;;5107335;28;20035;-68
2021/01/23 06:45:47;;;;;;;9.07;4.72;;;7.90;83.10;;;;;;5106701;28;19919;-67
2021/01/23 06:48:12;;;;;;;;;;;7.80;83.40;;;;;;5107344;28;20030;-67
2021/01/23 06:50:40;;;;;;;9.57;5.25;;;8.00;82.20;;;;;;5107152;28;19904;-68
2021/01/23 06:53:19;;;;;;;12.82;4.70;;;7.90;82.90;;;;;;5088447;28;20032;-68
2021/01/23 06:55:48;;;;;;;74.80;39.80;;;7.90;82.90;;;;;;5088276;28;20032;-68
2021/01/23 06:58:43;;;;;;;22.13;10.85;;;7.90;82.70;;;;;;5088654;28;20035;-68
2021/01/23 07:01:15;;;;;;;54.03;28.80;;;8.10;81.80;;;;;;5086303;28;20028;-68
2021/01/23 07:03:41;;;;;;;33.58;17.17;;;8.00;81.10;;;;;;5106563;28;20773;-67
2021/01/23 07:06:06;;;;;;;;;;;8.10;80.60;;;;;;5107447;28;20042;-67
2021/01/23 07:08:36;;;;;;;61.80;26.38;;;8.30;80.10;;;;;;5106999;28;19951;-68
2021/01/23 07:11:15;;;;;;;36.92;17.23;;;8.40;79.10;;;;;;5106985;28;20758;-67
2021/01/23 07:13:59;;;;;;;45.47;23.90;;;8.30;79.60;;;;;;5106780;28;20024;-66
2021/01/23 07:16:26;;;;;;;15.40;8.00;;;8.30;80.40;;;;;;5106296;28;20315;-68
2021/01/23 07:18:54;;;;;;;16.88;9.07;;;8.20;80.10;;;;;;5088469;28;20395;-66
2021/01/23 07:21:21;;;;;;;18.80;9.57;;;8.20;80.20;;;;;;5106254;28;20016;-67
2021/01/23 07:23:47;;;;;;;17.33;8.45;;;8.20;80.50;;;;;;5106142;28;20028;-68
2021/01/23 07:26:15;;;;;;;18.38;8.68;;;8.10;80.60;;;;;;5106507;28;20031;-67
2021/01/23 07:28:52;;;;;;;12.90;4.40;;;8.20;80.40;;;;;;5106376;28;20055;-67
2021/01/23 07:31:19;;;;;;;11.45;4.25;;;8.30;80.00;;;;;;5106260;28;20027;-67
2021/01/23 07:33:44;;;;;;;11.48;4.90;;;8.30;80.20;;;;;;5088247;28;20059;-67
2021/01/23 07:36:10;;;;;;;;;;;8.40;79.90;;;;;;5106685;28;20055;-67
2021/01/23 07:38:36;;;;;;;12.02;6.82;;;8.20;80.20;;;;;;5106474;28;19912;-68
2021/01/23 07:41:02;;;;;;;;;;;8.10;81.20;;;;;;5106814;28;20031;-67
2021/01/23 07:43:27;;;;;;;11.88;5.53;;;8.00;81.00;;;;;;5107447;28;19914;-67
2021/01/23 07:45:54;;;;;;;;;;;8.10;81.50;;;;;;5110497;28;20076;-67
2021/01/23 07:48:20;;;;;;;12.32;6.38;;;8.20;81.30;;;;;;5110295;28;19907;-67
2021/01/23 07:50:46;;;;;;;;;;;8.10;81.70;;;;;;5111008;28;20032;-68
2021/01/23 07:53:18;;;;;;;19.77;9.23;;;8.00;82.50;;;;;;5110328;28;19908;-67
2021/01/23 07:55:46;;;;;;;19.48;9.10;;;8.00;82.60;;;;;;5092173;28;20055;-67
2021/01/23 07:58:13;;;;;;;153.90;67.10;;;8.00;82.30;;;;;;5110236;28;20023;-67
2021/01/23 08:00:39;;;;;;;9.68;5.00;;;7.90;83.60;;;;;;5091578;28;20024;-67
2021/01/23 08:03:05;;;;;;;;;;;8.00;83.60;;;;;;5110470;28;20465;-68
2021/01/23 08:05:45;;;;;;;13.10;4.93;;;8.20;82.40;;;;;;5109863;28;19939;-68
2021/01/23 08:08:12;;;;;;;23.67;5.47;;;8.20;83.00;;;;;;5110054;28;20019;-66
2021/01/23 08:10:39;;;;;;;15.55;5.72;;;8.00;83.30;;;;;;5091180;28;20031;-68
2021/01/23 08:13:07;;;;;;;13.45;5.97;;;8.00;84.00;;;;;;5087891;28;20016;-69
2021/01/23 08:15:37;;;;;;;16.55;6.13;;;8.00;85.10;;;;;;5109519;28;20058;-68
2021/01/23 08:18:16;;;;;;;12.30;6.00;;;7.90;85.40;;;;;;5109982;28;20096;-68
2021/01/23 08:20:42;;;;;;;14.93;6.13;;;7.80;85.90;;;;;;5109817;28;20044;-67
2021/01/23 08:23:12;;;;;;;13.30;4.97;;;7.80;85.60;;;;;;5110332;28;20028;-67
2021/01/23 08:25:55;;;;;;;10.68;4.85;;;7.70;86.10;;;;;;5109967;28;20138;-69
2021/01/23 08:28:42;;;;;;;9.57;4.70;;;7.80;86.20;;;;;;5109775;28;20412;-67
2021/01/23 08:31:14;;;;;;;14.15;4.38;;;7.80;85.10;;;;;;5109852;28;20084;-68
2021/01/23 08:33:40;;;;;;;12.95;4.38;;;7.80;85.50;;;;;;5109629;28;20547;-68
2021/01/23 08:36:06;;;;;;;;;;;7.80;84.40;;;;;;5109688;28;20020;-66
2021/01/23 08:38:32;;;;;;;11.82;3.97;;;8.00;84.40;;;;;;5109741;28;20007;-66
2021/01/23 08:40:57;;;;;;;;;;;8.10;84.60;;;;;;5109595;28;20510;-68
2021/01/23 08:43:23;;;;;;;18.23;5.45;;;8.00;83.90;;;;;;5090865;28;19981;-68
2021/01/23 08:45:49;;;;;;;12.90;4.05;;;8.00;84.30;;;;;;5090747;28;20030;-68
2021/01/23 08:48:16;;;;;;;;;;;8.00;83.70;;;;;;5109981;28;20038;-67
2021/01/23 08:50:42;;;;;;;14.35;4.30;;;8.20;82.90;;;;;;5109124;28;19907;-68
2021/01/23 08:53:07;;;;;;;;;;;8.30;82.00;;;;;;5109945;28;20408;-68
2021/01/23 08:55:33;;;;;;;13.40;4.38;;;8.30;81.80;;;;;;5108270;28;19916;-69
2021/01/23 08:57:58;;;;;;;;;;;8.40;81.70;;;;;;5109476;28;20738;-68
2021/01/23 09:00:24;;;;;;;13.07;5.60;;;8.30;82.50;;;;;;5108630;28;19904;-68
2021/01/23 09:02:49;;;;;;;;;;;8.30;82.30;;;;;;5109660;28;20381;-68
2021/01/23 09:05:15;;;;;;;14.55;5.10;;;8.30;82.60;;;;;;5109190;28;19937;-68
2021/01/23 09:07:40;;;;;;;;;;;8.30;82.10;;;;;;5109212;28;20027;-69
2021/01/23 09:10:10;;;;;;;24.10;9.20;;;8.50;80.80;;;;;;5109127;28;20014;-67
2021/01/23 09:12:37;;;;;;;13.55;4.30;;;8.60;80.50;;;;;;5090570;28;20097;-68
2021/01/23 09:15:04;;;;;;;24.08;8.38;;;8.60;80.50;;;;;;5108332;28;20027;-68
2021/01/23 09:17:30;;;;;;;10.35;3.92;;;8.70;79.90;;;;;;5109045;28;20148;-65
2021/01/23 09:19:55;;;;;;;;;;;8.70;79.80;;;;;;5109031;28;20482;-66
2021/01/23 09:22:21;;;;;;;27.33;9.57;;;8.60;79.10;;;;;;5108616;28;19961;-65
2021/01/23 09:24:46;;;;;;;10.00;4.47;;;8.60;80.00;;;;;;5109168;28;20067;-65
2021/01/23 09:27:12;;;;;;;;;;;8.50;80.30;;;;;;5109122;28;20507;-68
2021/01/23 09:29:39;;;;;;;14.18;6.57;;;8.80;78.90;;;;;;5108420;28;19965;-69
2021/01/23 09:32:06;;;;;;;17.35;7.25;;;8.80;78.80;;;;;;5108693;28;20397;-68
2021/01/23 09:34:32;;;;;;;17.80;5.13;;;8.80;79.50;;;;;;5109267;28;20139;-67
2021/01/23 09:36:59;;;;;;;12.52;4.05;;;8.90;79.10;;;;;;5108687;28;20024;-68
2021/01/23 09:39:25;;;;;;;17.75;4.72;;;8.80;78.50;;;;;;5108704;28;20491;-68
2021/01/23 09:41:52;;;;;;;10.13;4.45;;;8.90;78.50;;;;;;5107902;28;20027;-67
2021/01/23 09:44:17;;;;;;;14.43;3.38;;;8.80;78.40;;;;;;5108049;28;20474;-68
2021/01/23 09:46:43;;;;;;;;;;;9.00;77.30;;;;;;5108948;28;20118;-67
2021/01/23 09:49:08;;;;;;;12.60;4.90;;;8.90;77.80;;;;;;5089979;28;19915;-67
2021/01/23 09:51:34;;;;;;;13.38;4.75;;;8.80;78.30;;;;;;5107847;28;20102;-65
2021/01/23 09:54:00;;;;;;;;;;;8.80;78.60;;;;;;5108564;28;20027;-66
2021/01/23 09:56:25;;;;;;;14.32;4.28;;;8.80;78.70;;;;;;5108096;28;20332;-67
2021/01/23 09:58:51;;;;;;;;;;;8.70;79.00;;;;;;5108046;28;20777;-66
2021/01/23 10:01:17;;;;;;;18.50;4.70;;;8.60;79.10;;;;;;5107964;28;20052;-66
2021/01/23 10:03:43;;;;;;;10.65;4.50;;;8.80;78.80;;;;;;5107903;28;20023;-66
2021/01/23 10:06:09;;;;;;;;;;;8.80;78.70;;;;;;5107999;28;20039;-67
2021/01/23 10:08:34;;;;;;;12.82;5.50;;;8.70;79.20;;;;;;5107080;28;19919;-67
2021/01/23 10:11:00;;;;;;;;;;;8.90;78.30;;;;;;5108648;28;20403;-66
2021/01/23 10:13:25;;;;;;;14.75;5.88;;;8.90;78.30;;;;;;5107642;28;19908;-67
2021/01/23 10:15:51;;;;;;;;;;;9.00;77.70;;;;;;5108206;28;20369;-65
2021/01/23 10:18:16;;;;;;;14.57;5.88;;;9.10;78.00;;;;;;5107986;28;19914;-67
2021/01/23 10:20:42;;;;;;;;;;;9.10;77.90;;;;;;5108233;28;20069;-66
2021/01/23 10:23:08;;;;;;;14.38;4.97;;;9.40;77.00;;;;;;5107280;28;19913;-66
2021/01/23 10:25:33;;;;;;;;;;;9.50;77.20;;;;;;5108125;28;20800;-66
2021/01/23 10:27:59;;;;;;;16.65;4.47;;;9.70;76.00;;;;;;5106559;28;19923;-67
2021/01/23 10:30:25;;;;;;;;;;;9.70;75.80;;;;;;5089866;28;20058;-65
2021/01/23 10:32:51;;;;;;;11.80;4.53;;;9.70;75.70;;;;;;5107257;28;19985;-67
2021/01/23 10:35:17;;;;;;;;;;;9.60;75.90;;;;;;5107906;28;20166;-67
2021/01/23 10:37:42;;;;;;;21.60;6.63;;;9.60;76.20;;;;;;5107437;28;19918;-66
2021/01/23 10:40:08;;;;;;;;;;;9.50;76.90;;;;;;5107430;28;20027;-64
2021/01/23 10:42:34;;;;;;;18.13;4.63;;;9.50;75.20;;;;;;5106912;28;19914;-66
2021/01/23 10:44:59;;;;;;;;;;;9.70;75.50;;;;;;5107621;28;20028;-66
2021/01/23 10:47:26;;;;;;;10.98;5.32;;;10.00;74.30;;;;;;5107115;28;19958;-67
2021/01/23 10:49:52;;;;;;;15.57;4.80;;;10.00;74.30;;;;;;5106827;28;20028;-66
2021/01/23 10:52:17;;;;;;;;;;;10.00;74.30;;;;;;5107621;28;20094;-66
2021/01/23 10:54:44;;;;;;;12.63;4.70;;;10.10;73.90;;;;;;5106769;28;19965;-66
2021/01/23 10:57:10;;;;;;;12.02;4.30;;;10.00;74.40;;;;;;5088191;28;20011;-66
2021/01/23 10:59:36;;;;;;;16.60;6.65;;;10.00;74.00;;;;;;5106923;28;20027;-65
2021/01/23 11:02:02;;;;;;;;;;;9.90;73.90;;;;;;5088784;28;20100;-67
2021/01/23 11:04:27;;;;;;;18.13;6.05;;;9.70;75.10;;;;;;5106858;28;20399;-67
2021/01/23 11:06:53;;;;;;;13.18;4.10;;;9.80;75.10;;;;;;5107130;28;20039;-67
2021/01/23 11:09:19;;;;;;;;;;;9.80;74.50;;;;;;5089033;28;20566;-67
2021/01/23 11:11:44;;;;;;;21.40;5.82;;;9.80;74.70;;;;;;5106165;28;20341;-67
2021/01/23 11:14:10;;;;;;;;;;;9.80;74.70;;;;;;5107065;28;20050;-67
2021/01/23 11:16:39;;;;;;;17.77;4.53;;;9.70;74.60;;;;;;5106872;28;20034;-65
2021/01/23 11:19:05;;;;;;;18.55;5.72;;;9.80;74.40;;;;;;5106475;28;20011;-66
2021/01/23 11:21:31;;;;;;;;;;;9.70;74.70;;;;;;5106786;28;20381;-65
2021/01/23 11:23:56;;;;;;;15.25;6.68;;;9.70;75.20;;;;;;5106693;28;19908;-65
2021/01/23 11:26:22;;;;;;;;;;;9.60;75.60;;;;;;5106802;28;20043;-65
2021/01/23 11:28:48;;;;;;;21.50;7.03;;;9.70;74.90;;;;;;5087704;28;19922;-66
2021/01/23 11:31:14;;;;;;;;;;;9.60;74.80;;;;;;5107319;28;20047;-65
2021/01/23 11:33:41;;;;;;;16.40;6.13;;;9.60;75.70;;;;;;5106200;28;20687;-66
2021/01/23 11:36:07;;;;;;;27.55;8.40;;;9.60;75.30;;;;;;5106793;28;20489;-66
2021/01/23 11:38:34;;;;;;;;;;;9.70;75.40;;;;;;5107174;28;20482;-66
2021/01/23 11:41:00;;;;;;;20.05;5.88;;;9.70;74.90;;;;;;5106114;28;19904;-66
2021/01/23 11:43:26;;;;;;;15.30;4.95;;;9.80;74.80;;;;;;5105936;28;20058;-66
2021/01/23 11:45:51;;;;;;;;;;;9.80;74.90;;;;;;5106169;28;20530;-66
2021/01/23 11:48:17;;;;;;;17.92;6.78;;;9.80;75.00;;;;;;5106187;28;19911;-66
2021/01/23 11:50:42;;;;;;;;;;;9.80;74.60;;;;;;5106570;28;20515;-67
2021/01/23 11:53:08;;;;;;;16.92;4.82;;;9.90;74.20;;;;;;5106112;28;20456;-66
2021/01/23 11:55:33;;;;;;;;;;;9.90;73.80;;;;;;5106955;28;20106;-67
2021/01/23 11:57:59;;;;;;;16.65;5.70;;;9.80;74.50;;;;;;5105443;28;19907;-67
2021/01/23 12:00:24;;;;;;;;;;;9.90;74.70;;;;;;5107289;28;20034;-67
2021/01/23 12:02:50;;;;;;;16.60;6.60;;;9.90;74.40;;;;;;5105998;28;20327;-67
2021/01/23 12:05:19;;;;;;;;;;;9.90;74.80;;;;;;5088761;28;20035;-67
2021/01/23 12:07:46;;;;;;;66.65;27.25;;;10.00;74.50;;;;;;5106401;28;20368;-67
2021/01/23 12:10:13;;;;;;;24.27;11.95;;;10.00;74.50;;;;;;5105881;28;20605;-68
2021/01/23 12:12:39;;;;;;;13.52;5.00;;;10.00;74.60;;;;;;5106038;28;20106;-67
2021/01/23 12:15:04;;;;;;;;;;;10.00;73.90;;;;;;5088657;28;20114;-67
2021/01/23 12:17:30;;;;;;;30.00;13.43;;;10.20;73.00;;;;;;5105737;28;20380;-66
2021/01/23 12:19:56;;;;;;;;;;;10.10;73.70;;;;;;5106019;28;20055;-68
2021/01/23 12:22:21;;;;;;;27.55;12.55;;;10.10;74.00;;;;;;5106169;28;19911;-67
2021/01/23 12:24:47;;;;;;;;;;;10.10;74.20;;;;;;5088212;28;20480;-67
2021/01/23 12:27:13;;;;;;;21.92;7.95;;;10.20;73.60;;;;;;5104203;28;19916;-67
2021/01/23 12:29:38;;;;;;;;;;;10.10;73.60;;;;;;5086435;28;20434;-67
2021/01/23 12:32:06;;;;;;;14.35;5.03;;;10.00;74.10;;;;;;5090436;28;19907;-67
2021/01/23 12:34:32;;;;;;;12.90;4.72;;;10.10;74.20;;;;;;5109746;28;20035;-68
2021/01/23 12:36:58;;;;;;;;;;;10.10;73.90;;;;;;5110096;28;20358;-66
2021/01/23 12:39:23;;;;;;;17.05;6.00;;;10.10;73.80;;;;;;5109922;28;19911;-68
2021/01/23 12:41:50;;;;;;;;;;;10.10;73.90;;;;;;5109301;28;20110;-67
2021/01/23 12:44:16;;;;;;;11.40;5.03;;;10.00;73.80;;;;;;5109643;28;19907;-68
2021/01/23 12:46:41;;;;;;;;;;;9.90;74.40;;;;;;5109885;28;20042;-67
2021/01/23 12:49:07;;;;;;;11.32;5.00;;;10.00;74.60;;;;;;5109506;28;20258;-68
2021/01/23 12:51:32;;;;;;;;;;;10.00;74.50;;;;;;5109943;28;20024;-67
2021/01/23 12:53:58;;;;;;;16.52;5.50;;;9.80;75.70;;;;;;5108872;28;19907;-68
2021/01/23 12:56:23;;;;;;;;;;;9.80;74.90;;;;;;5108410;28;20106;-66
2021/01/23 12:58:49;;;;;;;15.35;5.03;;;9.80;75.40;;;;;;5108882;28;19930;-67
2021/01/23 13:01:14;;;;;;;;;;;9.80;75.10;;;;;;5091381;28;20024;-67
2021/01/23 13:03:40;;;;;;;19.42;5.75;;;9.60;75.90;;;;;;5109159;28;19951;-65
2021/01/23 13:06:05;;;;;;;;;;;9.60;76.10;;;;;;5109450;28;20437;-66
2021/01/23 13:08:31;;;;;;;32.17;15.13;;;9.50;76.50;;;;;;5109648;28;19914;-69
2021/01/23 13:10:57;;;;;;;;;;;9.40;77.00;;;;;;5108945;28;20036;-69
2021/01/23 13:13:24;;;;;;;33.38;14.75;;;9.40;77.10;;;;;;5109453;28;20075;-68
2021/01/23 13:15:50;;;;;;;36.58;13.48;;;9.60;76.70;;;;;;5109113;28;20019;-69